Time;durP1;ratioP1;P1;durP2;ratioP2;P2;SDS_P1;SDS_P2;PMS_P1;PMS_P2;Temp;Humidity;BMP_temperature;BMP_pressure;BME280_temperature;BME280_humidity;BME280_pressure;Samples;Min_cycle;Max_cycle;Signal;HPM_P1;HPM_P2
2022/09/29 00:19:18;;;;;;;;;;;;;;;15.96;60.05;98278.16;4354963;33;20042;-89
2022/09/29 00:21:46;;;;;;;;;;;;;;;16.04;60.06;98277.53;4348851;33;19984;-89
2022/09/29 00:24:12;;;;;;;;;;;;;;;16.13;60.06;98276.84;4360402;32;20046;-89
2022/09/29 00:26:37;;;;;;;;;;;;;;;15.94;60.06;98269.56;4348113;33;19998;-89
2022/09/29 00:29:02;;;;;;;;;;;;;;;15.91;60.05;98271.59;4347111;33;36462;-89
2022/09/29 00:31:28;;;;;;;;;;;;;;;15.96;60.06;98266.81;4348848;33;24797;-88
2022/09/29 00:33:53;;;;;;;;;;;;;;;16.06;60.06;98265.13;4350330;33;19990;-89
2022/09/29 00:36:19;;;;;;;;;;;;;;;16.00;60.07;98265.63;4347914;33;19983;-88
2022/09/29 00:38:45;;;;;;;;;;;;;;;16.12;60.07;98262.06;4335938;33;19992;-89
2022/09/29 00:41:16;;;;;;;;;;;;;;;16.16;60.07;98263.47;4335877;33;19979;-88
2022/09/29 00:43:45;;;;;;;;;;;;;;;16.11;60.06;98259.56;4347818;33;19952;-89
2022/09/29 00:46:12;;;;;;;;;;;;;;;16.06;60.06;98259.06;4349250;33;20059;-89
2022/09/29 00:48:38;;;;;;;;;;;;;;;16.07;60.06;98256.31;4348335;33;20054;-89
2022/09/29 00:51:03;;;;;;;;;;;;;;;16.23;60.06;98263.81;4355870;33;35869;-90
2022/09/29 00:53:28;;;;;;;;;;;;;;;16.13;60.07;98263.72;4361400;33;31226;-88
2022/09/29 00:56:03;;;;;;;;;;;;;;;16.16;60.06;98270.53;4357855;33;25292;-89
2022/09/29 00:58:32;;;;;;;;;;;;;;;16.10;60.07;98271.84;4351909;33;20054;-89
2022/09/29 01:01:00;;;;;;;;;;;;;;;15.79;60.05;98267.28;4348790;33;20528;-88
2022/09/29 01:03:30;;;;;;;;;;;;;;;15.70;60.04;98262.75;4347944;33;20309;-89
2022/09/29 01:06:09;;;;;;;;;;;;;;;15.52;60.03;98251.81;4335007;33;19998;-89
2022/09/29 01:08:54;;;;;;;;;;;;;;;15.63;60.04;98247.47;4347431;33;19999;-89
2022/09/29 01:11:19;;;;;;;;;;;;;;;15.57;60.04;98247.06;4347091;32;20038;-88
2022/09/29 01:13:44;;;;;;;;;;;;;;;15.64;60.04;98254.41;4346685;33;35933;-89
2022/09/29 01:16:09;;;;;;;;;;;;;;;15.69;60.04;98251.41;4361885;33;33296;-87
2022/09/29 01:18:34;;;;;;;;;;;;;;;15.67;60.04;98255.13;4361262;32;35110;-87
2022/09/29 01:20:59;;;;;;;;;;;;;;;15.72;60.05;98247.72;4350462;33;24641;-90
2022/09/29 01:23:29;;;;;;;;;;;;;;;15.74;60.05;98246.66;4350788;33;19971;-89
2022/09/29 01:26:12;;;;;;;;;;;;;;;15.69;60.04;98250.59;4335530;33;20000;-89
2022/09/29 01:28:46;;;;;;;;;;;;;;;15.60;60.03;98250.31;4347346;33;20000;-88
2022/09/29 01:31:11;;;;;;;;;;;;;;;15.64;60.04;98257.03;4348197;33;19986;-89
2022/09/29 01:33:58;;;;;;;;;;;;;;;15.59;60.03;98248.66;4348990;33;19996;-89
2022/09/29 01:36:27;;;;;;;;;;;;;;;15.45;60.03;98240.13;4349436;32;20337;-89
2022/09/29 01:38:58;;;;;;;;;;;;;;;15.53;60.03;98249.09;4350175;33;20055;-89
2022/09/29 01:41:26;;;;;;;;;;;;;;;15.60;60.04;98239.81;4348990;33;19975;-89
2022/09/29 01:44:05;;;;;;;;;;;;;;;15.42;60.03;98240.37;4349762;33;20302;-89
2022/09/29 01:46:33;;;;;;;;;;;;;;;15.51;60.03;98239.66;4348947;33;19995;-89
2022/09/29 01:49:01;;;;;;;;;;;;;;;15.40;60.03;98227.38;4336755;33;20004;-89
2022/09/29 01:51:37;;;;;;;;;;;;;;;15.32;60.03;98229.72;4338793;33;19979;-90
2022/09/29 01:54:03;;;;;;;;;;;;;;;15.39;60.02;98224.87;4348629;33;19988;-89
2022/09/29 01:56:44;;;;;;;;;;;;;;;15.45;60.03;98229.66;4349775;33;19995;-89
2022/09/29 01:59:11;;;;;;;;;;;;;;;15.20;60.01;98220.19;4351407;33;20002;-90
2022/09/29 02:01:37;;;;;;;;;;;;;;;15.30;60.02;98226.41;4336509;33;20058;-90
2022/09/29 02:04:13;;;;;;;;;;;;;;;15.44;60.03;98222.75;4354356;33;19959;-89
2022/09/29 02:06:40;;;;;;;;;;;;;;;15.35;60.02;98224.25;4342332;33;19980;-90
2022/09/29 02:09:10;;;;;;;;;;;;;;;15.22;60.01;98220.91;4349797;33;20005;-90
2022/09/29 02:11:38;;;;;;;;;;;;;;;15.36;60.02;98223.28;4351707;33;20088;-89
2022/09/29 02:14:14;;;;;;;;;;;;;;;15.44;60.02;98220.94;4349204;33;20502;-89
2022/09/29 02:16:41;;;;;;;;;;;;;;;15.47;60.02;98222.50;4336301;33;19991;-90
2022/09/29 02:19:07;;;;;;;;;;;;;;;15.62;60.03;98226.63;4348560;33;20137;-88
2022/09/29 02:21:34;;;;;;;;;;;;;;;15.59;60.03;98224.19;4348389;33;20027;-89
2022/09/29 02:23:59;;;;;;;;;;;;;;;15.45;60.02;98220.00;4336538;33;19997;-89
2022/09/29 02:26:28;;;;;;;;;;;;;;;15.54;60.03;98221.06;4347673;33;19992;-87
2022/09/29 02:28:56;;;;;;;;;;;;;;;15.44;60.03;98223.56;4336449;33;20349;-88
2022/09/29 02:31:23;;;;;;;;;;;;;;;15.63;60.04;98230.91;4361088;32;20671;-88
2022/09/29 02:33:49;;;;;;;;;;;;;;;15.55;60.04;98234.06;4350349;33;19995;-87
2022/09/29 02:36:21;;;;;;;;;;;;;;;15.65;60.04;98226.38;4337603;33;31409;-88
2022/09/29 02:38:47;;;;;;;;;;;;;;;15.73;60.04;98241.53;4351699;33;19995;-87
2022/09/29 02:41:15;;;;;;;;;;;;;;;15.76;60.04;98241.28;4364840;32;19997;-88
2022/09/29 02:43:47;;;;;;;;;;;;;;;15.81;60.05;98250.47;4359682;33;19980;-86
2022/09/29 02:46:31;;;;;;;;;;;;;;;15.79;60.05;98256.78;4362040;33;20056;-89
2022/09/29 02:49:08;;;;;;;;;;;;;;;15.87;60.05;98252.62;4350226;33;19991;-88
2022/09/29 02:51:38;;;;;;;;;;;;;;;15.95;60.06;98252.03;4336166;33;19984;-88
2022/09/29 02:54:12;;;;;;;;;;;;;;;15.91;60.05;98263.72;4336238;33;20034;-89
2022/09/29 02:56:57;;;;;;;;;;;;;;;15.77;60.04;98269.19;4348595;33;20023;-89
2022/09/29 02:59:27;;;;;;;;;;;;;;;15.96;60.06;98258.94;4348328;33;20096;-88
2022/09/29 03:01:54;;;;;;;;;;;;;;;15.90;60.05;98264.69;4362641;32;19983;-89
2022/09/29 03:04:20;;;;;;;;;;;;;;;15.85;60.04;98262.41;4347946;33;20006;-91
2022/09/29 03:06:49;;;;;;;;;;;;;;;16.02;60.06;98262.87;4350023;33;19960;-89
2022/09/29 03:09:16;;;;;;;;;;;;;;;16.07;60.06;98253.69;4348326;33;20015;-89
2022/09/29 03:11:41;;;;;;;;;;;;;;;15.88;60.05;98259.56;4349116;33;19967;-89
2022/09/29 03:14:07;;;;;;;;;;;;;;;15.90;60.05;98259.44;4349003;33;21071;-88
2022/09/29 03:16:32;;;;;;;;;;;;;;;16.14;60.07;98251.44;4348284;33;20019;-90
2022/09/29 03:18:58;;;;;;;;;;;;;;;16.21;60.07;98248.19;4349822;33;20011;-90
2022/09/29 03:21:26;;;;;;;;;;;;;;;16.31;60.08;98250.91;4348155;33;20022;-90
2022/09/29 03:23:54;;;;;;;;;;;;;;;16.21;60.07;98247.34;4336667;33;20024;-90
2022/09/29 03:26:22;;;;;;;;;;;;;;;15.95;60.06;98249.41;4348695;33;19983;-91
2022/09/29 03:28:51;;;;;;;;;;;;;;;15.85;60.05;98249.28;4351932;32;20278;-91
2022/09/29 03:31:18;;;;;;;;;;;;;;;15.91;60.05;98240.09;4336203;33;20349;-90
2022/09/29 03:33:44;;;;;;;;;;;;;;;15.76;60.04;98246.53;4335239;33;19980;-90
2022/09/29 03:36:10;;;;;;;;;;;;;;;15.86;60.04;98242.25;4360319;32;19987;-89
2022/09/29 03:38:38;;;;;;;;;;;;;;;16.00;60.05;98233.28;4348166;33;20509;-89
2022/09/29 03:41:03;;;;;;;;;;;;;;;15.79;60.05;98223.50;4347941;33;19972;-89
2022/09/29 03:43:29;;;;;;;;;;;;;;;15.94;60.06;98219.69;4335319;33;20015;-88
2022/09/29 03:45:57;;;;;;;;;;;;;;;16.06;60.06;98215.25;4335800;33;19999;-88
2022/09/29 03:48:29;;;;;;;;;;;;;;;15.91;60.05;98219.13;4337074;33;20046;-87
2022/09/29 03:50:56;;;;;;;;;;;;;;;15.81;60.05;98221.59;4355756;33;19952;-90
2022/09/29 03:53:21;;;;;;;;;;;;;;;15.85;60.04;98214.31;4362028;33;19955;-90
2022/09/29 03:55:46;;;;;;;;;;;;;;;15.91;60.05;98206.00;4359491;32;19979;-90
2022/09/29 03:58:12;;;;;;;;;;;;;;;15.73;60.04;98204.78;4352312;33;20037;-89
2022/09/29 04:00:37;;;;;;;;;;;;;;;15.75;60.04;98208.13;4351110;33;37148;-88
2022/09/29 04:03:02;;;;;;;;;;;;;;;15.77;60.04;98203.59;4327196;33;866137;-88
2022/09/29 04:05:28;;;;;;;;;;;;;;;15.82;60.05;98204.06;4349036;33;19983;-88
2022/09/29 04:07:53;;;;;;;;;;;;;;;15.85;60.04;98203.81;4335866;33;19995;-88
2022/09/29 04:10:21;;;;;;;;;;;;;;;15.86;60.04;98201.09;4347132;33;24162;-89
2022/09/29 04:12:49;;;;;;;;;;;;;;;15.90;60.05;98201.69;4347541;33;20074;-91
2022/09/29 04:15:15;;;;;;;;;;;;;;;15.72;60.04;98198.72;4348206;33;19992;-89
2022/09/29 04:17:40;;;;;;;;;;;;;;;15.73;60.04;98203.00;4346888;33;35251;-90
2022/09/29 04:20:06;;;;;;;;;;;;;;;15.80;60.05;98203.34;4346733;33;34697;-89
2022/09/29 04:22:31;;;;;;;;;;;;;;;15.92;60.05;98205.03;4348145;33;20018;-89
2022/09/29 04:24:57;;;;;;;;;;;;;;;15.94;60.06;98205.75;4338478;33;27248;-88
2022/09/29 04:27:22;;;;;;;;;;;;;;;15.89;60.05;98198.25;4347445;33;20262;-88
2022/09/29 04:29:47;;;;;;;;;;;;;;;15.89;60.05;98203.50;4348489;33;32806;-88
2022/09/29 04:32:13;;;;;;;;;;;;;;;15.89;60.05;98205.28;4347562;33;29709;-90
2022/09/29 04:34:38;;;;;;;;;;;;;;;16.00;60.05;98200.00;4351303;33;32667;-89
2022/09/29 04:37:03;;;;;;;;;;;;;;;16.14;60.06;98205.00;4349705;33;34613;-89
2022/09/29 04:39:28;;;;;;;;;;;;;;;16.24;60.07;98195.44;4349687;33;20019;-88
2022/09/29 04:41:57;;;;;;;;;;;;;;;16.45;60.08;98199.94;4348462;33;19984;-88
2022/09/29 04:44:24;;;;;;;;;;;;;;;16.20;60.07;98201.91;4350863;33;19980;-88
2022/09/29 04:46:52;;;;;;;;;;;;;;;16.33;60.08;98201.75;4351595;33;19983;-89
2022/09/29 04:49:20;;;;;;;;;;;;;;;16.01;60.06;98206.94;4348339;32;19979;-88
2022/09/29 04:51:46;;;;;;;;;;;;;;;16.21;60.07;98206.19;4345814;33;20332;-89
2022/09/29 04:54:11;;;;;;;;;;;;;;;16.42;60.07;98194.94;4346029;33;29927;-88
2022/09/29 04:56:36;;;;;;;;;;;;;;;16.50;60.08;98203.84;4348466;33;19995;-89
2022/09/29 04:59:04;;;;;;;;;;;;;;;16.30;60.07;98204.59;4335031;33;19979;-89
2022/09/29 05:01:30;;;;;;;;;;;;;;;16.15;60.06;98211.09;4347104;33;19988;-89
2022/09/29 05:03:55;;;;;;;;;;;;;;;16.07;60.06;98213.47;4347469;33;20023;-88
2022/09/29 05:06:22;;;;;;;;;;;;;;;16.12;60.06;98214.81;4336039;33;25685;-88
2022/09/29 05:08:50;;;;;;;;;;;;;;;16.37;60.07;98212.84;4350321;33;19972;-89
2022/09/29 05:11:15;;;;;;;;;;;;;;;16.38;60.07;98217.97;4340895;33;20010;-87
2022/09/29 05:13:40;;;;;;;;;;;;;;;16.21;60.07;98223.72;4348846;33;34330;-89
2022/09/29 05:16:06;;;;;;;;;;;;;;;16.13;60.06;98228.75;4336502;33;20317;-90
2022/09/29 05:18:31;;;;;;;;;;;;;;;16.14;60.06;98230.44;4338008;33;19979;-89
2022/09/29 05:21:01;;;;;;;;;;;;;;;16.34;60.08;98223.59;4351206;32;21586;-89
2022/09/29 05:23:27;;;;;;;;;;;;;;;16.36;60.07;98219.06;4349242;33;20376;-89
2022/09/29 05:25:52;;;;;;;;;;;;;;;16.18;60.07;98223.97;4336656;33;20059;-90
2022/09/29 05:28:17;;;;;;;;;;;;;;;16.12;60.06;98237.59;4348446;33;30782;-90
2022/09/29 05:30:48;;;;;;;;;;;;;;;16.10;60.06;98227.22;4350344;33;19971;-90
2022/09/29 05:33:13;;;;;;;;;;;;;;;16.31;60.07;98226.44;4350217;33;20010;-89
2022/09/29 05:35:39;;;;;;;;;;;;;;;16.21;60.06;98234.22;4350175;33;19988;-91
2022/09/29 05:38:04;;;;;;;;;;;;;;;16.46;60.07;98233.13;4336768;33;19997;-90
2022/09/29 05:40:29;;;;;;;;;;;;;;;16.33;60.08;98243.78;4352132;33;20008;-89
2022/09/29 05:42:54;;;;;;;;;;;;;;;16.29;60.07;98242.31;4357510;33;32314;-91
2022/09/29 05:45:20;;;;;;;;;;;;;;;15.85;60.04;98245.81;4351154;33;21437;-91
2022/09/29 05:47:48;;;;;;;;;;;;;;;15.83;60.04;98245.91;4350911;33;19989;-91
2022/09/29 05:50:13;;;;;;;;;;;;;;;15.88;60.05;98249.06;4349428;33;19983;-91
2022/09/29 05:52:38;;;;;;;;;;;;;;;16.01;60.07;98253.34;4349307;33;36245;-91
2022/09/29 05:55:04;;;;;;;;;;;;;;;15.67;60.04;98258.56;4350697;33;20022;-89
2022/09/29 05:57:30;;;;;;;;;;;;;;;15.55;60.04;98257.66;4350335;33;19972;-91
2022/09/29 05:59:55;;;;;;;;;;;;;;;15.53;60.03;98256.94;4351127;32;19964;-92
2022/09/29 06:02:23;;;;;;;;;;;;;;;15.62;60.03;98258.09;4335614;33;35870;-89
2022/09/29 06:04:48;;;;;;;;;;;;;;;15.42;60.03;98271.84;4348990;33;20007;-90
2022/09/29 06:07:13;;;;;;;;;;;;;;;15.61;60.03;98261.63;4349489;33;33350;-89
2022/09/29 06:09:38;;;;;;;;;;;;;;;15.49;60.03;98260.75;4349988;33;19990;-90
2022/09/29 06:12:04;;;;;;;;;;;;;;;15.41;60.02;98273.63;4350173;33;19996;-90
2022/09/29 06:14:29;;;;;;;;;;;;;;;15.41;60.02;98271.00;4349143;33;20329;-90
2022/09/29 06:16:57;;;;;;;;;;;;;;;15.39;60.02;98267.66;4349175;33;20270;-89
2022/09/29 06:19:22;;;;;;;;;;;;;;;15.42;60.03;98282.34;4349849;33;20007;-89
2022/09/29 06:21:47;;;;;;;;;;;;;;;15.14;60.00;98271.28;4349301;33;37013;-89
2022/09/29 06:24:12;;;;;;;;;;;;;;;15.12;60.01;98281.00;4349473;33;35809;-89
2022/09/29 06:26:38;;;;;;;;;;;;;;;15.17;60.02;98278.09;4349028;33;20003;-90
2022/09/29 06:29:03;;;;;;;;;;;;;;;15.21;60.01;98282.97;4361460;32;20143;-90
2022/09/29 06:31:28;;;;;;;;;;;;;;;15.10;60.01;98287.31;4349180;33;19991;-90
2022/09/29 06:33:59;;;;;;;;;;;;;;;14.97;60.00;98285.63;4349144;33;20002;-90
2022/09/29 06:39:11;;;;;;;;;;;;;;;14.79;59.99;98305.28;4352309;33;19987;-89
2022/09/29 06:41:37;;;;;;;;;;;;;;;14.86;59.99;98300.44;4349940;33;20298;-90
2022/09/29 06:44:02;;;;;;;;;;;;;;;14.75;59.99;98303.84;4349157;33;20037;-89
2022/09/29 06:46:27;;;;;;;;;;;;;;;14.75;59.99;98309.06;4349265;33;34863;-89
2022/09/29 06:48:56;;;;;;;;;;;;;;;14.66;59.99;98309.72;4348707;33;20245;-90
2022/09/29 06:51:21;;;;;;;;;;;;;;;14.38;59.96;98309.03;4348663;33;19991;-90
2022/09/29 06:53:47;;;;;;;;;;;;;;;14.32;59.96;98303.41;4339054;33;20002;-90
2022/09/29 06:56:13;;;;;;;;;;;;;;;14.49;59.98;98299.63;4362262;33;19967;-90
2022/09/29 06:58:38;;;;;;;;;;;;;;;14.44;59.97;98302.59;4363417;33;19962;-90
2022/09/29 07:01:04;;;;;;;;;;;;;;;14.67;59.98;98296.53;4356862;33;19975;-90
2022/09/29 07:03:30;;;;;;;;;;;;;;;14.79;59.98;98307.06;4352096;33;20399;-89
2022/09/29 07:05:55;;;;;;;;;;;;;;;14.60;59.98;98307.53;4336845;33;19998;-89
2022/09/29 07:08:20;;;;;;;;;;;;;;;14.71;59.98;98312.88;4348803;33;20010;-90
2022/09/29 07:10:47;;;;;;;;;;;;;;;14.65;59.98;98327.22;4349405;33;31196;-89
2022/09/29 07:13:12;;;;;;;;;;;;;;;14.45;59.97;98321.75;4336526;33;19999;-90
2022/09/29 07:15:37;;;;;;;;;;;;;;;14.54;59.97;98327.16;4350148;33;20308;-90
2022/09/29 07:18:04;;;;;;;;;;;;;;;14.49;59.98;98325.81;4350333;33;20004;-90
2022/09/29 07:20:30;;;;;;;;;;;;;;;14.34;59.97;98318.03;4349556;33;19987;-90
2022/09/29 07:22:56;;;;;;;;;;;;;;;14.47;59.97;98309.37;4350914;33;19967;-87
2022/09/29 07:25:21;;;;;;;;;;;;;;;14.44;59.97;98313.06;4340266;33;20058;-87
2022/09/29 07:27:47;;;;;;;;;;;;;;;14.45;59.97;98321.75;4357482;32;35546;-88
2022/09/29 07:30:12;;;;;;;;;;;;;;;14.56;59.98;98327.03;4363972;32;20019;-88
2022/09/29 07:32:37;;;;;;;;;;;;;;;14.71;59.98;98323.34;4376461;32;19956;-86
2022/09/29 07:35:03;;;;;;;;;;;;;;;14.94;59.99;98329.56;4358390;33;20050;-89
2022/09/29 07:37:29;;;;;;;;;;;;;;;15.24;60.01;98326.47;4349987;33;20246;-89
2022/09/29 07:39:55;;;;;;;;;;;;;;;15.41;60.03;98325.22;4349928;33;20009;-88
2022/09/29 07:42:20;;;;;;;;;;;;;;;15.66;60.04;98335.59;4348277;33;20269;-89
2022/09/29 07:44:48;;;;;;;;;;;;;;;15.58;60.03;98346.63;4348131;33;19995;-88
2022/09/29 07:47:13;;;;;;;;;;;;;;;15.72;60.04;98347.41;4348294;33;19998;-89
2022/09/29 07:49:39;;;;;;;;;;;;;;;15.85;60.04;98353.38;4348491;33;20529;-90
2022/09/29 07:52:04;;;;;;;;;;;;;;;15.68;60.03;98351.22;4348486;33;19987;-88
2022/09/29 07:54:30;;;;;;;;;;;;;;;15.65;60.03;98358.38;4349387;33;20065;-89
2022/09/29 07:56:55;;;;;;;;;;;;;;;16.03;60.05;98359.03;4349645;33;19971;-88
2022/09/29 07:59:20;;;;;;;;;;;;;;;16.03;60.05;98359.03;4348604;33;20007;-89
2022/09/29 08:01:45;;;;;;;;;;;;;;;16.11;60.06;98359.31;4360748;32;20006;-91
2022/09/29 08:04:11;;;;;;;;;;;;;;;16.24;60.07;98347.72;4348483;33;19990;-90
2022/09/29 08:06:36;;;;;;;;;;;;;;;16.37;60.07;98344.16;4349585;33;20351;-91
2022/09/29 08:09:01;;;;;;;;;;;;;;;16.50;60.08;98343.06;4349400;33;20333;-90
2022/09/29 08:11:27;;;;;;;;;;;;;;;16.40;60.08;98349.16;4348449;33;19987;-90
2022/09/29 08:13:52;;;;;;;;;;;;;;;16.40;60.08;98349.16;4349056;33;20258;-90
2022/09/29 08:16:17;;;;;;;;;;;;;;;16.53;60.08;98337.56;4348264;33;19979;-90
2022/09/29 08:18:43;;;;;;;;;;;;;;;16.53;60.08;98340.19;4349377;33;20190;-91
2022/09/29 08:21:09;;;;;;;;;;;;;;;16.64;60.09;98351.66;4347453;32;20006;-90
2022/09/29 08:23:38;;;;;;;;;;;;;;;16.76;60.09;98353.31;4347784;33;19990;-90
2022/09/29 08:26:07;;;;;;;;;;;;;;;16.79;60.10;98366.22;4359716;32;19984;-89
2022/09/29 08:28:33;;;;;;;;;;;;;;;16.90;60.10;98355.72;4347360;33;20030;-90
2022/09/29 08:31:05;;;;;;;;;;;;;;;16.90;60.10;98354.87;4347253;33;19995;-92
2022/09/29 08:33:31;;;;;;;;;;;;;;;16.85;60.09;98360.50;4348554;33;19975;-90
2022/09/29 08:35:57;;;;;;;;;;;;;;;16.82;60.09;98364.22;4335740;33;20045;-89
2022/09/29 08:38:22;;;;;;;;;;;;;;;16.77;60.09;98376.84;4347047;33;20005;-90
2022/09/29 08:40:47;;;;;;;;;;;;;;;16.98;60.11;98368.22;4348803;33;19976;-89
2022/09/29 08:43:14;;;;;;;;;;;;;;;17.07;60.10;98357.81;4347060;33;33584;-89
2022/09/29 08:45:43;;;;;;;;;;;;;;;17.11;60.11;98353.16;4347279;33;20353;-89
2022/09/29 08:48:19;;;;;;;;;;;;;;;17.21;60.12;98354.06;4347112;33;20055;-90
2022/09/29 08:51:07;;;;;;;;;;;;;;;17.49;60.14;98357.91;4346951;33;20010;-90
2022/09/29 08:53:35;;;;;;;;;;;;;;;17.47;60.13;98362.44;4342721;33;19998;-90
2022/09/29 08:56:06;;;;;;;;;;;;;;;17.62;60.13;98369.09;4346941;33;19983;-89
2022/09/29 08:58:32;;;;;;;;;;;;;;;17.56;60.14;98374.03;4334515;33;20494;-90
2022/09/29 09:01:15;;;;;;;;;;;;;;;17.49;60.13;98379.78;4346429;33;20006;-90
2022/09/29 09:03:59;;;;;;;;;;;;;;;17.43;60.13;98387.34;4358964;32;19983;-90
2022/09/29 09:06:27;;;;;;;;;;;;;;;17.49;60.13;98381.56;4348223;33;20005;-89
2022/09/29 09:08:55;;;;;;;;;;;;;;;17.45;60.13;98380.16;4348034;33;19999;-91
2022/09/29 09:11:20;;;;;;;;;;;;;;;17.53;60.13;98380.38;4347890;33;20005;-90
2022/09/29 09:13:55;;;;;;;;;;;;;;;17.41;60.13;98390.09;4348809;33;19987;-89
2022/09/29 09:16:39;;;;;;;;;;;;;;;17.38;60.12;98385.09;4356866;33;19999;-89
2022/09/29 09:19:10;;;;;;;;;;;;;;;17.51;60.13;98384.94;4349513;33;20054;-89
2022/09/29 09:21:41;;;;;;;;;;;;;;;17.70;60.13;98384.25;4348906;33;20017;-91
2022/09/29 09:24:14;;;;;;;;;;;;;;;17.95;60.16;98388.31;4347047;33;20037;-91
2022/09/29 09:26:44;;;;;;;;;;;;;;;17.87;60.15;98403.94;4346579;33;19976;-90
2022/09/29 09:29:15;;;;;;;;;;;;;;;17.87;60.15;98390.78;4333831;33;19984;-90
2022/09/29 09:31:50;;;;;;;;;;;;;;;17.76;60.14;98407.47;4348406;33;19992;-91
2022/09/29 09:34:16;;;;;;;;;;;;;;;17.96;60.16;98401.34;4347729;33;20042;-91
2022/09/29 09:36:44;;;;;;;;;;;;;;;18.22;60.16;98398.34;4346264;33;20029;-89
2022/09/29 09:39:12;;;;;;;;;;;;;;;18.23;60.18;98408.75;4346776;33;19984;-91
2022/09/29 09:41:37;;;;;;;;;;;;;;;18.26;60.18;98405.84;4335420;33;20051;-91
2022/09/29 09:44:19;;;;;;;;;;;;;;;18.14;60.16;98404.25;4359214;32;20369;-91
2022/09/29 09:46:46;;;;;;;;;;;;;;;18.34;60.18;98406.03;4347332;33;20046;-91
2022/09/29 09:49:19;;;;;;;;;;;;;;;18.17;60.17;98408.41;4348417;33;19956;-92
2022/09/29 09:51:59;;;;;;;;;;;;;;;18.25;60.18;98408.63;4338386;33;20711;-92
2022/09/29 09:54:26;;;;;;;;;;;;;;;18.33;60.18;98412.28;4349381;33;19972;-92
2022/09/29 09:56:51;;;;;;;;;;;;;;;18.19;60.17;98409.13;4345524;33;19975;-92
2022/09/29 09:59:17;;;;;;;;;;;;;;;18.39;60.18;98401.19;4362785;33;19994;-90
2022/09/29 10:01:42;;;;;;;;;;;;;;;18.51;60.19;98391.44;4358286;33;20257;-91
2022/09/29 10:04:08;;;;;;;;;;;;;;;18.75;60.20;98388.50;4351943;33;20002;-91
2022/09/29 10:06:33;;;;;;;;;;;;;;;18.96;60.21;98384.00;4349691;33;19979;-90
2022/09/29 10:08:59;;;;;;;;;;;;;;;19.00;60.21;98389.81;4361403;32;20005;-92
2022/09/29 10:11:29;;;;;;;;;;;;;;;19.22;60.22;98386.94;4351504;33;19987;-91
2022/09/29 10:13:57;;;;;;;;;;;;;;;19.57;60.24;98396.16;4349479;33;20351;-92
2022/09/29 10:16:28;;;;;;;;;;;;;;;19.81;60.25;98399.22;4354765;33;19960;-94
2022/09/29 10:18:53;;;;;;;;;;;;;;;19.91;60.26;98401.88;4351723;33;20015;-93
2022/09/29 10:21:19;;;;;;;;;;;;;;;20.10;60.27;98385.13;4359848;32;32776;-90
2022/09/29 10:23:54;;;;;;;;;;;;;;;20.17;60.28;98387.09;4348391;33;19983;-91
2022/09/29 10:26:24;;;;;;;;;;;;;;;20.31;60.28;98388.41;4348440;33;19975;-93
2022/09/29 10:28:51;;;;;;;;;;;;;;;20.73;60.31;98394.16;4348734;33;19964;-93
2022/09/29 10:31:29;;;;;;;;;;;;;;;21.01;60.31;98396.78;4337641;33;19999;-92
2022/09/29 10:33:58;;;;;;;;;;;;;;;21.27;60.33;98394.28;4362037;32;20024;-93
2022/09/29 10:36:24;;;;;;;;;;;;;;;21.44;60.34;98396.12;4349386;33;20305;-92
2022/09/29 10:38:50;;;;;;;;;;;;;;;21.59;60.35;98383.22;4349639;33;19991;-93
2022/09/29 10:41:18;;;;;;;;;;;;;;;21.89;60.36;98384.63;4350239;33;20030;-92
2022/09/29 10:43:43;;;;;;;;;;;;;;;21.96;60.37;98388.31;4349699;33;19990;-92
2022/09/29 10:46:28;;;;;;;;;;;;;;;21.81;60.36;98389.84;4349233;33;19976;-92
2022/09/29 10:49:13;;;;;;;;;;;;;;;21.99;60.37;98390.63;4352217;33;20026;-93
2022/09/29 10:51:38;;;;;;;;;;;;;;;21.65;60.36;98390.53;4349224;32;20177;-92
2022/09/29 10:54:07;;;;;;;;;;;;;;;21.86;60.35;98387.56;4350188;33;20023;-93
2022/09/29 10:56:32;;;;;;;;;;;;;;;21.95;60.36;98389.28;4350553;33;19979;-92
2022/09/29 10:58:57;;;;;;;;;;;;;;;21.94;60.36;98398.22;4351100;33;19996;-92
2022/09/29 11:01:24;;;;;;;;;;;;;;;21.81;60.37;98408.41;4362481;32;20017;-94
2022/09/29 11:03:52;;;;;;;;;;;;;;;21.80;60.36;98407.56;4351068;33;19995;-93
2022/09/29 11:06:23;;;;;;;;;;;;;;;21.84;60.36;98400.13;4350559;33;20414;-91
2022/09/29 11:09:03;;;;;;;;;;;;;;;21.73;60.36;98402.03;4351300;33;19991;-92
2022/09/29 11:11:28;;;;;;;;;;;;;;;21.72;60.36;98405.66;4350011;33;20454;-93
2022/09/29 11:13:54;;;;;;;;;;;;;;;21.55;60.34;98409.16;4350377;33;20317;-92
2022/09/29 11:16:25;;;;;;;;;;;;;;;21.64;60.36;98407.41;4361284;32;19983;-92
2022/09/29 11:18:51;;;;;;;;;;;;;;;21.68;60.35;98414.91;4349260;33;19995;-91
2022/09/29 11:21:23;;;;;;;;;;;;;;;21.91;60.37;98417.09;4349217;33;20007;-92
2022/09/29 11:23:48;;;;;;;;;;;;;;;21.88;60.37;98404.97;4350185;33;19975;-92
2022/09/29 11:26:28;;;;;;;;;;;;;;;21.81;60.37;98419.00;4350470;33;20031;-93
2022/09/29 11:29:03;;;;;;;;;;;;;;;21.76;60.36;98412.31;4349823;33;19964;-92
2022/09/29 11:31:34;;;;;;;;;;;;;;;21.75;60.36;98410.66;4350178;33;20591;-92
2022/09/29 11:34:00;;;;;;;;;;;;;;;21.78;60.36;98409.53;4348816;33;19955;-93
2022/09/29 11:36:41;;;;;;;;;;;;;;;21.71;60.37;98411.09;4350089;33;19975;-92
2022/09/29 11:39:25;;;;;;;;;;;;;;;21.49;60.35;98415.03;4355531;33;20010;-91
2022/09/29 11:41:59;;;;;;;;;;;;;;;21.45;60.35;98411.88;4350011;33;20003;-93
2022/09/29 11:44:43;;;;;;;;;;;;;;;21.18;60.34;98418.97;4349180;33;20006;-91
2022/09/29 11:47:08;;;;;;;;;;;;;;;21.29;60.33;98426.72;4351914;33;19976;-92
2022/09/29 11:49:54;;;;;;;;;;;;;;;21.32;60.34;98423.81;4351225;33;20002;-93
2022/09/29 11:52:20;;;;;;;;;;;;;;;21.32;60.34;98421.16;4349151;33;19999;-92
2022/09/29 11:54:56;;;;;;;;;;;;;;;21.27;60.34;98426.06;4349781;33;20041;-87
2022/09/29 11:57:24;;;;;;;;;;;;;;;21.25;60.33;98435.97;4350351;33;19998;-93
2022/09/29 11:59:50;;;;;;;;;;;;;;;21.09;60.33;98434.78;4348713;32;20000;-93
2022/09/29 12:02:34;;;;;;;;;;;;;;;21.10;60.33;98439.09;4348566;33;19994;-93
2022/09/29 12:05:04;;;;;;;;;;;;;;;20.99;60.32;98443.72;4361494;32;19980;-93
2022/09/29 12:07:48;;;;;;;;;;;;;;;20.89;60.32;98445.59;4363229;32;19990;-92
2022/09/29 12:10:16;;;;;;;;;;;;;;;21.11;60.33;98443.41;4348801;32;19991;-94
2022/09/29 12:12:54;;;;;;;;;;;;;;;21.26;60.34;98432.31;4348704;33;19991;-94
2022/09/29 12:15:22;;;;;;;;;;;;;;;21.41;60.35;98425.56;4348470;33;19979;-93
2022/09/29 12:17:48;;;;;;;;;;;;;;;21.46;60.35;98420.63;4349959;33;20034;-93
2022/09/29 12:20:19;;;;;;;;;;;;;;;21.51;60.35;98422.81;4348516;33;20321;-93
2022/09/29 12:22:44;;;;;;;;;;;;;;;21.30;60.34;98425.78;4336277;33;20641;-93
2022/09/29 12:25:13;;;;;;;;;;;;;;;21.46;60.35;98431.22;4336215;33;19967;-93
2022/09/29 12:27:39;;;;;;;;;;;;;;;21.56;60.34;98425.88;4349335;33;19991;-93
2022/09/29 12:30:14;;;;;;;;;;;;;;;21.32;60.34;98426.47;4358600;32;20015;-93
2022/09/29 12:33:05;;;;;;;;;;;;;;;21.25;60.33;98428.03;4351649;33;19960;-93
2022/09/29 12:35:33;;;;;;;;;;;;;;;21.30;60.34;98421.31;4347257;33;20297;-92
2022/09/29 12:38:14;;;;;;;;;;;;;;;21.26;60.34;98432.31;4348283;33;19992;-93
2022/09/29 12:40:48;;;;;;;;;;;;;;;21.55;60.35;98437.47;4347820;33;20364;-91
2022/09/29 12:43:18;;;;;;;;;;;;;;;21.42;60.35;98449.22;4335586;33;19983;-92
2022/09/29 12:45:47;;;;;;;;;;;;;;;21.35;60.34;98460.56;4336106;33;20116;-93
2022/09/29 12:48:31;;;;;;;;;;;;;;;21.50;60.35;98466.16;4349627;33;20015;-92
2022/09/29 12:50:58;;;;;;;;;;;;;;;21.36;60.34;98460.41;4341497;33;20019;-93
2022/09/29 12:53:59;;;;;;;;;;;;;;;21.48;60.34;98465.50;4361810;32;19976;-92
2022/09/29 12:56:31;;;;;;;;;;;;;;;21.53;60.35;98471.16;4342509;33;19972;-93
2022/09/29 12:58:56;;;;;;;;;;;;;;;21.48;60.36;98473.44;4334044;33;20019;-93
2022/09/29 13:01:28;;;;;;;;;;;;;;;21.20;60.34;98473.44;4351470;33;19972;-93
2022/09/29 13:04:14;;;;;;;;;;;;;;;21.10;60.33;98473.50;4353299;33;20003;-93
2022/09/29 13:06:51;;;;;;;;;;;;;;;21.20;60.34;98465.47;4356337;33;20026;-89
2022/09/29 13:09:35;;;;;;;;;;;;;;;21.31;60.34;98461.84;4363557;32;19947;-90
2022/09/29 13:12:21;;;;;;;;;;;;;;;21.48;60.36;98458.38;4364090;32;20015;-88
2022/09/29 13:14:53;;;;;;;;;;;;;;;21.26;60.34;98458.78;4359608;32;19995;-93
2022/09/29 13:17:18;;;;;;;;;;;;;;;21.22;60.34;98445.00;4348056;33;19998;-91